Time;durP1;ratioP1;P1;durP2;ratioP2;P2;SDS_P1;SDS_P2;PMS_P1;PMS_P2;Temp;Humidity;BMP_temperature;BMP_pressure;BME280_temperature;BME280_humidity;BME280_pressure;Samples;Min_cycle;Max_cycle;Signal;HPM_P1;HPM_P2
2022/07/26 00:02:19;;;;;;;;;;;21.00;61.80;;;;;;5048357;28;19920;-81
2022/07/26 00:04:45;;;;;;;;;;;20.90;62.00;;;;;;5049471;28;19968;-79
2022/07/26 00:07:10;;;;;;;;;;;20.90;62.00;;;;;;5050773;28;19917;-80
2022/07/26 00:09:36;;;;;;;;;;;20.90;62.30;;;;;;5047844;28;19966;-79
2022/07/26 00:12:01;;;;;;;;;;;20.80;62.20;;;;;;5039482;28;19986;-79
2022/07/26 00:14:26;;;;;;;;;;;20.80;62.10;;;;;;5046290;28;20564;-79
2022/07/26 00:16:52;;;;;;;;;;;20.80;62.10;;;;;;5045791;28;19937;-80
2022/07/26 00:19:17;;;;;;;;;;;20.80;62.00;;;;;;5052658;28;19923;-79
2022/07/26 00:21:43;;;;;;;;;;;20.70;62.30;;;;;;5054780;28;19912;-80
2022/07/26 00:24:08;;;;;;;;;;;20.60;62.60;;;;;;5046146;28;19927;-80
2022/07/26 00:26:53;;;;;;;;;;;20.60;62.70;;;;;;5051207;28;19940;-80
2022/07/26 00:29:18;;;;;;;;;;;20.60;63.00;;;;;;5050290;28;20611;-80
2022/07/26 00:31:44;;;;;;;;;;;20.60;63.00;;;;;;5045545;28;20011;-80
2022/07/26 00:34:09;;;;;;;;;;;20.60;63.10;;;;;;5049071;28;19916;-80
2022/07/26 00:36:35;;;;;;;;;;;20.50;62.90;;;;;;5047934;28;19912;-80
2022/07/26 00:39:00;;;;;;;;;;;20.50;63.30;;;;;;5048219;28;20285;-81
2022/07/26 00:41:26;;;;;;;;;;;20.40;63.60;;;;;;5047837;28;19917;-80
2022/07/26 00:43:56;;;;;;;;;;;20.40;63.60;;;;;;5047453;28;20013;-81
2022/07/26 00:46:21;;;;;;;;;;;20.30;64.00;;;;;;5049964;28;19925;-80
2022/07/26 00:48:47;;;;;;;;;;;20.30;64.30;;;;;;5057167;28;19966;-80
2022/07/26 00:51:13;;;;;;;;;;;20.20;64.40;;;;;;5046382;28;20008;-80
2022/07/26 00:53:39;;;;;;;;;;;20.20;64.40;;;;;;5050229;28;19966;-79
2022/07/26 00:56:04;;;;;;;;;;;20.10;64.90;;;;;;5046471;28;19916;-80
2022/07/26 00:58:30;;;;;;;;;;;20.10;64.80;;;;;;5053991;28;19913;-80
2022/07/26 01:00:55;;;;;;;;;;;20.10;65.10;;;;;;5051145;28;19913;-80
2022/07/26 01:03:21;;;;;;;;;;;20.10;65.20;;;;;;5052632;28;19912;-80
2022/07/26 01:05:47;;;;;;;;;;;20.00;65.70;;;;;;5045901;28;19913;-80
2022/07/26 01:08:13;;;;;;;;;;;20.00;65.70;;;;;;5046655;28;19912;-80
2022/07/26 01:10:38;;;;;;;;;;;20.00;65.60;;;;;;5051215;28;19919;-80
2022/07/26 01:13:04;;;;;;;;;;;20.00;65.80;;;;;;5047774;28;19919;-79
2022/07/26 01:15:29;;;;;;;;;;;19.90;66.00;;;;;;5053398;28;20002;-81
2022/07/26 01:17:55;;;;;;;;;;;19.90;66.70;;;;;;5055567;28;19913;-80
2022/07/26 01:20:20;;;;;;;;;;;19.80;66.40;;;;;;5048686;28;20298;-80
2022/07/26 01:22:46;;;;;;;;;;;19.80;66.90;;;;;;5048873;28;20396;-81
2022/07/26 01:25:11;;;;;;;;;;;19.70;66.80;;;;;;5051324;28;19955;-81
2022/07/26 01:27:40;;;;;;;;;;;19.70;66.90;;;;;;5052917;28;19920;-81
2022/07/26 01:30:07;;;;;;;;;;;19.80;66.60;;;;;;5049094;28;19913;-80
2022/07/26 01:32:33;;;;;;;;;;;19.80;66.80;;;;;;5051786;28;20293;-81
2022/07/26 01:34:58;;;;;;;;;;;19.70;67.10;;;;;;5066747;28;19919;-80
2022/07/26 01:37:23;;;;;;;;;;;19.60;67.20;;;;;;5045666;28;19948;-80
2022/07/26 01:39:49;;;;;;;;;;;19.60;67.40;;;;;;5050745;28;19920;-80
2022/07/26 01:42:14;;;;;;;;;;;19.60;67.40;;;;;;5045909;28;19920;-79
2022/07/26 01:44:40;;;;;;;;;;;19.60;67.60;;;;;;5052643;28;20007;-81
2022/07/26 01:47:05;;;;;;;;;;;19.60;67.70;;;;;;5053920;28;20019;-80
2022/07/26 01:49:31;;;;;;;;;;;19.60;67.60;;;;;;5058931;28;19936;-80
2022/07/26 01:51:56;;;;;;;;;;;19.60;67.70;;;;;;5049291;28;19948;-81
2022/07/26 01:54:22;;;;;;;;;;;19.60;67.70;;;;;;5052884;28;19952;-81
2022/07/26 01:56:47;;;;;;;;;;;19.70;67.50;;;;;;5049598;28;20011;-81
2022/07/26 01:59:13;;;;;;;;;;;19.70;67.50;;;;;;5052476;28;19909;-80
2022/07/26 02:01:38;;;;;;;;;;;19.80;67.30;;;;;;5046790;28;19917;-80
2022/07/26 02:04:04;;;;;;;;;;;19.80;67.60;;;;;;5046670;28;19912;-80
2022/07/26 02:06:29;;;;;;;;;;;19.80;67.30;;;;;;5050641;28;19921;-80
2022/07/26 02:08:54;;;;;;;;;;;19.80;67.30;;;;;;5046942;28;19947;-79
2022/07/26 02:11:20;;;;;;;;;;;19.70;67.70;;;;;;5050430;28;19913;-79
2022/07/26 02:13:45;;;;;;;;;;;19.80;67.30;;;;;;5051991;28;19913;-80
2022/07/26 02:16:13;;;;;;;;;;;19.80;67.50;;;;;;5053212;28;19965;-79
2022/07/26 02:18:41;;;;;;;;;;;19.70;67.40;;;;;;5049501;28;19913;-80
2022/07/26 02:21:07;;;;;;;;;;;19.80;67.30;;;;;;5045209;28;19986;-80
2022/07/26 02:23:33;;;;;;;;;;;19.80;67.20;;;;;;5051671;28;19939;-80
2022/07/26 02:25:59;;;;;;;;;;;19.80;67.30;;;;;;5050273;28;19917;-81
2022/07/26 02:28:25;;;;;;;;;;;19.80;67.20;;;;;;5051119;28;19916;-81
2022/07/26 02:30:50;;;;;;;;;;;19.80;67.10;;;;;;5045158;28;19935;-80
2022/07/26 02:33:16;;;;;;;;;;;19.70;67.40;;;;;;5046771;28;19926;-80
2022/07/26 02:35:42;;;;;;;;;;;19.70;67.60;;;;;;5047137;28;19919;-80
2022/07/26 02:38:10;;;;;;;;;;;19.70;67.80;;;;;;5049940;28;20498;-80
2022/07/26 02:40:36;;;;;;;;;;;19.60;67.90;;;;;;5040763;28;19913;-79
2022/07/26 02:43:01;;;;;;;;;;;19.60;68.30;;;;;;5050356;28;20404;-81
2022/07/26 02:45:27;;;;;;;;;;;19.60;68.30;;;;;;5047603;28;19920;-80
2022/07/26 02:47:53;;;;;;;;;;;19.50;68.60;;;;;;5043342;28;20070;-80
2022/07/26 02:50:20;;;;;;;;;;;19.60;68.60;;;;;;5043495;28;19917;-80
2022/07/26 02:52:46;;;;;;;;;;;19.60;68.50;;;;;;5046865;28;19943;-79
2022/07/26 02:55:12;;;;;;;;;;;19.60;68.60;;;;;;5040377;28;19920;-80
2022/07/26 02:57:38;;;;;;;;;;;19.60;68.70;;;;;;5039953;28;19912;-80
2022/07/26 03:00:04;;;;;;;;;;;19.60;68.70;;;;;;5048430;28;20376;-80
2022/07/26 03:02:30;;;;;;;;;;;19.60;68.50;;;;;;5044270;28;19964;-80
2022/07/26 03:04:55;;;;;;;;;;;19.70;68.50;;;;;;5046792;28;19920;-80
2022/07/26 03:07:21;;;;;;;;;;;19.60;68.70;;;;;;5044839;28;20003;-80
2022/07/26 03:09:46;;;;;;;;;;;19.60;68.90;;;;;;5046159;28;19916;-79
2022/07/26 03:12:12;;;;;;;;;;;19.70;68.50;;;;;;5045559;28;19913;-80
2022/07/26 03:14:37;;;;;;;;;;;19.60;68.60;;;;;;5049992;28;20325;-79
2022/07/26 03:17:02;;;;;;;;;;;19.70;68.60;;;;;;5057593;28;19963;-79
2022/07/26 03:19:28;;;;;;;;;;;19.70;68.40;;;;;;5062742;28;19920;-80
2022/07/26 03:21:53;;;;;;;;;;;19.70;68.80;;;;;;5047271;28;19913;-80
2022/07/26 03:24:19;;;;;;;;;;;19.80;69.70;;;;;;5051321;28;19996;-79
2022/07/26 03:26:44;;;;;;;;;;;19.70;70.60;;;;;;5050424;28;19916;-79
2022/07/26 03:29:10;;;;;;;;;;;19.70;71.60;;;;;;5049162;28;19924;-79
2022/07/26 03:31:35;;;;;;;;;;;19.60;72.20;;;;;;5045903;28;20374;-79
2022/07/26 03:34:01;;;;;;;;;;;19.50;72.90;;;;;;5050861;28;19999;-79
2022/07/26 03:36:26;;;;;;;;;;;19.50;72.50;;;;;;5049288;28;20389;-80
2022/07/26 03:38:52;;;;;;;;;;;19.50;72.50;;;;;;5048551;28;20123;-79
2022/07/26 03:41:17;;;;;;;;;;;19.50;72.30;;;;;;5046702;28;19967;-79
2022/07/26 03:43:42;;;;;;;;;;;19.50;72.40;;;;;;5050010;28;19913;-79
2022/07/26 03:46:08;;;;;;;;;;;19.50;72.40;;;;;;5046068;28;19994;-79
2022/07/26 03:48:33;;;;;;;;;;;19.40;72.40;;;;;;5047383;28;19943;-78
2022/07/26 03:50:59;;;;;;;;;;;19.40;72.30;;;;;;5049153;28;20392;-79
2022/07/26 03:53:24;;;;;;;;;;;19.40;72.40;;;;;;5048324;28;20344;-79
2022/07/26 03:58:34;;;;;;;;;;;19.40;75.00;;;;;;5048018;28;19946;-79
2022/07/26 04:00:59;;;;;;;;;;;19.30;75.10;;;;;;5051813;28;19946;-79
2022/07/26 04:03:25;;;;;;;;;;;19.20;75.70;;;;;;5048056;28;19916;-78
2022/07/26 04:05:50;;;;;;;;;;;19.30;76.00;;;;;;5057367;28;19947;-81
2022/07/26 04:08:16;;;;;;;;;;;19.10;75.60;;;;;;5046667;28;19917;-81
2022/07/26 04:10:50;;;;;;;;;;;19.30;75.40;;;;;;5052664;28;19955;-81
2022/07/26 04:13:16;;;;;;;;;;;19.20;75.50;;;;;;5052947;28;19988;-82
2022/07/26 04:15:41;;;;;;;;;;;19.20;76.60;;;;;;5046663;28;19964;-83
2022/07/26 04:18:07;;;;;;;;;;;19.00;77.50;;;;;;5049306;28;19913;-80
2022/07/26 04:20:32;;;;;;;;;;;18.90;78.80;;;;;;5046923;28;20000;-81
2022/07/26 04:22:57;;;;;;;;;;;18.80;79.90;;;;;;5048741;28;19921;-82
2022/07/26 04:25:23;;;;;;;;;;;18.60;80.00;;;;;;5049674;28;19917;-79
2022/07/26 04:27:49;;;;;;;;;;;18.60;80.80;;;;;;5048581;28;19917;-79
2022/07/26 04:30:14;;;;;;;;;;;18.50;80.90;;;;;;5049167;28;19963;-81
2022/07/26 04:32:40;;;;;;;;;;;18.60;80.80;;;;;;5054141;28;19913;-80
2022/07/26 04:35:06;;;;;;;;;;;18.50;81.60;;;;;;5045880;28;20007;-79
2022/07/26 04:37:37;;;;;;;;;;;18.60;81.70;;;;;;5044053;28;19913;-80
2022/07/26 04:40:02;;;;;;;;;;;18.50;81.90;;;;;;5042894;28;20395;-76
2022/07/26 04:42:28;;;;;;;;;;;18.50;81.60;;;;;;5049735;28;19912;-78
2022/07/26 04:44:53;;;;;;;;;;;18.40;82.40;;;;;;5050591;28;19944;-80
2022/07/26 04:47:19;;;;;;;;;;;18.30;82.00;;;;;;5048128;28;20050;-81
2022/07/26 04:49:44;;;;;;;;;;;18.30;83.10;;;;;;5054769;28;19917;-80
2022/07/26 04:52:10;;;;;;;;;;;18.30;83.00;;;;;;5057309;28;19924;-82
2022/07/26 04:54:35;;;;;;;;;;;18.30;82.90;;;;;;5062635;28;19913;-80
2022/07/26 04:57:01;;;;;;;;;;;18.30;83.30;;;;;;5051105;28;19943;-81
2022/07/26 04:59:26;;;;;;;;;;;18.40;83.30;;;;;;5052950;28;20011;-84
2022/07/26 05:01:51;;;;;;;;;;;18.40;83.70;;;;;;5054108;28;19948;-81
2022/07/26 05:04:17;;;;;;;;;;;18.50;83.60;;;;;;5043801;28;19913;-78
2022/07/26 05:06:42;;;;;;;;;;;18.50;83.70;;;;;;5042523;28;19964;-78
2022/07/26 05:09:09;;;;;;;;;;;18.50;83.60;;;;;;5045758;28;19920;-76
2022/07/26 05:11:35;;;;;;;;;;;18.50;83.80;;;;;;5051987;28;19916;-76
2022/07/26 05:14:00;;;;;;;;;;;18.50;84.10;;;;;;5041924;28;19916;-77
2022/07/26 05:16:25;;;;;;;;;;;18.50;84.50;;;;;;5048350;28;19916;-76
2022/07/26 05:18:51;;;;;;;;;;;18.50;84.20;;;;;;5050150;28;20023;-77
2022/07/26 05:21:17;;;;;;;;;;;18.40;84.40;;;;;;5048425;28;20309;-76
2022/07/26 05:23:43;;;;;;;;;;;18.50;84.70;;;;;;5041805;28;19994;-77
2022/07/26 05:26:09;;;;;;;;;;;18.50;84.70;;;;;;5046857;28;20468;-76
2022/07/26 05:28:36;;;;;;;;;;;18.60;84.50;;;;;;5050059;28;20285;-77
2022/07/26 05:31:02;;;;;;;;;;;18.50;84.40;;;;;;5062314;28;20463;-76
2022/07/26 05:33:27;;;;;;;;;;;18.40;84.30;;;;;;5049212;28;19917;-76
2022/07/26 05:36:08;;;;;;;;;;;18.50;84.00;;;;;;5013282;28;20163;-77
2022/07/26 05:38:34;;;;;;;;;;;18.50;84.90;;;;;;5048229;28;20381;-77
2022/07/26 05:40:59;;;;;;;;;;;18.50;83.90;;;;;;5050205;28;19933;-76
2022/07/26 05:43:26;;;;;;;;;;;18.50;84.30;;;;;;5047841;28;19917;-76
2022/07/26 05:45:52;;;;;;;;;;;18.60;84.00;;;;;;5049062;28;20300;-76
2022/07/26 05:48:17;;;;;;;;;;;18.50;83.80;;;;;;5049273;28;19908;-75
2022/07/26 05:50:43;;;;;;;;;;;18.60;83.60;;;;;;5049235;28;19912;-76
2022/07/26 05:53:08;;;;;;;;;;;18.60;83.30;;;;;;5047348;28;19909;-76
2022/07/26 05:55:34;;;;;;;;;;;18.50;81.90;;;;;;5050515;28;19932;-76
2022/07/26 05:57:59;;;;;;;;;;;18.60;82.90;;;;;;5049113;28;19909;-76
2022/07/26 06:00:24;;;;;;;;;;;18.60;82.70;;;;;;5044430;28;20334;-76
2022/07/26 06:02:50;;;;;;;;;;;18.80;82.50;;;;;;5038177;28;19917;-76
2022/07/26 06:05:16;;;;;;;;;;;18.70;82.10;;;;;;5037658;28;20042;-76
2022/07/26 06:07:41;;;;;;;;;;;18.80;81.80;;;;;;5040646;28;19917;-75
2022/07/26 06:10:07;;;;;;;;;;;18.80;81.80;;;;;;5039782;28;19913;-76
2022/07/26 06:12:32;;;;;;;;;;;18.90;82.20;;;;;;5046729;28;19909;-76
2022/07/26 06:14:58;;;;;;;;;;;18.90;81.80;;;;;;5039683;28;20002;-76
2022/07/26 06:17:28;;;;;;;;;;;18.90;81.50;;;;;;5046427;28;19963;-76
2022/07/26 06:19:54;;;;;;;;;;;18.90;81.60;;;;;;5046528;28;19919;-78
2022/07/26 06:22:19;;;;;;;;;;;19.00;81.50;;;;;;5049152;28;20440;-78
2022/07/26 06:24:45;;;;;;;;;;;19.00;82.00;;;;;;5050919;28;20030;-77
2022/07/26 06:27:10;;;;;;;;;;;18.90;82.30;;;;;;5048096;28;19917;-78
2022/07/26 06:29:36;;;;;;;;;;;19.00;82.00;;;;;;5045197;28;20405;-78
2022/07/26 06:32:01;;;;;;;;;;;19.00;81.60;;;;;;5046892;28;19943;-76
2022/07/26 06:34:27;;;;;;;;;;;19.00;81.50;;;;;;5045601;28;19951;-75
2022/07/26 06:36:52;;;;;;;;;;;19.10;81.40;;;;;;5046049;28;19913;-76
2022/07/26 06:39:18;;;;;;;;;;;19.00;81.30;;;;;;5046696;28;19916;-76
2022/07/26 06:41:43;;;;;;;;;;;19.10;81.00;;;;;;5066030;28;19909;-77
2022/07/26 06:44:09;;;;;;;;;;;19.30;80.80;;;;;;5046977;28;19913;-76
2022/07/26 06:46:35;;;;;;;;;;;19.50;80.20;;;;;;5042604;28;20377;-77
2022/07/26 06:49:00;;;;;;;;;;;19.60;80.10;;;;;;5047332;28;19923;-77
2022/07/26 06:51:26;;;;;;;;;;;19.60;79.80;;;;;;5047432;28;20322;-77
2022/07/26 06:53:51;;;;;;;;;;;19.80;79.30;;;;;;5047689;28;19913;-77
2022/07/26 06:56:17;;;;;;;;;;;19.60;78.40;;;;;;5041837;28;20336;-76
2022/07/26 06:58:43;;;;;;;;;;;19.60;78.20;;;;;;5040510;28;20035;-77
2022/07/26 07:01:08;;;;;;;;;;;19.80;77.80;;;;;;5047575;28;19913;-78
2022/07/26 07:03:34;;;;;;;;;;;19.70;78.20;;;;;;5046547;28;19921;-77
2022/07/26 07:05:59;;;;;;;;;;;19.80;78.60;;;;;;5044832;28;20051;-77
2022/07/26 07:08:25;;;;;;;;;;;19.70;78.20;;;;;;5046924;28;20000;-76
2022/07/26 07:10:51;;;;;;;;;;;19.60;77.40;;;;;;5047962;28;19999;-77
2022/07/26 07:13:17;;;;;;;;;;;19.50;78.40;;;;;;5040822;28;19916;-77
2022/07/26 07:15:43;;;;;;;;;;;19.50;79.00;;;;;;5060871;28;20412;-77
2022/07/26 07:18:09;;;;;;;;;;;19.50;78.30;;;;;;5049673;28;19909;-77
2022/07/26 07:20:35;;;;;;;;;;;19.40;78.30;;;;;;5042837;28;19920;-77
2022/07/26 07:23:00;;;;;;;;;;;19.50;78.90;;;;;;5040234;28;20262;-77
2022/07/26 07:25:26;;;;;;;;;;;19.50;78.30;;;;;;5045248;28;19989;-78
2022/07/26 07:27:51;;;;;;;;;;;19.60;78.90;;;;;;5041804;28;19917;-80
2022/07/26 07:30:17;;;;;;;;;;;19.70;78.20;;;;;;5042913;28;19925;-79
2022/07/26 07:32:42;;;;;;;;;;;19.80;78.20;;;;;;5046568;28;19921;-81
2022/07/26 07:35:08;;;;;;;;;;;20.00;78.10;;;;;;5046887;28;19948;-80
2022/07/26 07:37:34;;;;;;;;;;;20.20;76.40;;;;;;5049082;28;20338;-81
2022/07/26 07:39:59;;;;;;;;;;;20.30;75.80;;;;;;5066022;28;20300;-80
2022/07/26 07:42:25;;;;;;;;;;;20.30;75.70;;;;;;5052368;28;19913;-80
2022/07/26 07:44:50;;;;;;;;;;;20.30;75.80;;;;;;5048104;28;20342;-80
2022/07/26 07:47:16;;;;;;;;;;;20.30;75.70;;;;;;5047343;28;19978;-80
2022/07/26 07:49:41;;;;;;;;;;;20.40;75.30;;;;;;5056591;28;19955;-80
2022/07/26 07:52:07;;;;;;;;;;;20.50;75.00;;;;;;5046256;28;19959;-80
2022/07/26 07:54:32;;;;;;;;;;;20.80;74.20;;;;;;5050137;28;19913;-80
2022/07/26 07:56:58;;;;;;;;;;;21.10;73.40;;;;;;5048218;28;20000;-80
2022/07/26 07:59:23;;;;;;;;;;;21.20;73.30;;;;;;5050381;28;19954;-81
2022/07/26 08:01:49;;;;;;;;;;;21.30;72.40;;;;;;5047913;28;19944;-80
2022/07/26 08:04:14;;;;;;;;;;;21.50;72.40;;;;;;5049441;28;19912;-80
2022/07/26 08:06:40;;;;;;;;;;;21.40;71.50;;;;;;5054350;28;19943;-80
2022/07/26 08:09:05;;;;;;;;;;;21.40;70.80;;;;;;5053302;28;19913;-79
2022/07/26 08:11:31;;;;;;;;;;;21.30;71.50;;;;;;5055681;28;20320;-80
2022/07/26 08:13:56;;;;;;;;;;;21.30;72.30;;;;;;5055410;28;19913;-80
2022/07/26 08:16:22;;;;;;;;;;;21.30;70.80;;;;;;5055186;28;19996;-80
2022/07/26 08:18:47;;;;;;;;;;;21.50;71.20;;;;;;5051524;28;19992;-79
2022/07/26 08:21:13;;;;;;;;;;;21.90;69.70;;;;;;5053611;28;19920;-81
2022/07/26 08:23:39;;;;;;;;;;;22.00;69.40;;;;;;5055825;28;19991;-82
2022/07/26 08:26:04;;;;;;;;;;;22.00;68.30;;;;;;5055294;28;19920;-81
2022/07/26 08:28:30;;;;;;;;;;;22.00;67.80;;;;;;5055474;28;20362;-80
2022/07/26 08:30:55;;;;;;;;;;;22.20;67.70;;;;;;5058214;28;20255;-81
2022/07/26 08:33:22;;;;;;;;;;;22.00;68.00;;;;;;5053578;28;19924;-80
2022/07/26 08:35:47;;;;;;;;;;;21.80;68.60;;;;;;5051429;28;20374;-81
2022/07/26 08:38:13;;;;;;;;;;;21.70;68.90;;;;;;5053560;28;19913;-80
2022/07/26 08:40:38;;;;;;;;;;;21.70;69.10;;;;;;5055666;28;19921;-81
2022/07/26 08:43:04;;;;;;;;;;;22.00;68.80;;;;;;5055719;28;19913;-80
2022/07/26 08:45:30;;;;;;;;;;;22.10;68.20;;;;;;5054598;28;19920;-82
2022/07/26 08:47:56;;;;;;;;;;;22.30;67.90;;;;;;5058094;28;20407;-80
2022/07/26 08:50:22;;;;;;;;;;;22.50;66.70;;;;;;5064686;28;19913;-80
2022/07/26 08:52:48;;;;;;;;;;;22.60;66.50;;;;;;5048915;28;19919;-80
2022/07/26 08:55:19;;;;;;;;;;;22.60;64.10;;;;;;5052976;28;19913;-80
2022/07/26 08:57:44;;;;;;;;;;;22.60;63.90;;;;;;5046450;28;19913;-80
2022/07/26 09:00:17;;;;;;;;;;;22.60;64.10;;;;;;5051062;28;20300;-79
2022/07/26 09:02:43;;;;;;;;;;;22.40;64.80;;;;;;5062644;28;20004;-81
2022/07/26 09:05:09;;;;;;;;;;;22.10;64.70;;;;;;5056810;28;19944;-82
2022/07/26 09:07:34;;;;;;;;;;;21.90;64.80;;;;;;5054137;28;19959;-80
2022/07/26 09:10:05;;;;;;;;;;;21.70;65.80;;;;;;5052884;28;19944;-80
2022/07/26 09:12:30;;;;;;;;;;;21.60;66.80;;;;;;5055393;28;20403;-80
2022/07/26 09:14:56;;;;;;;;;;;21.40;70.90;;;;;;5051567;28;19921;-81
2022/07/26 09:17:24;;;;;;;;;;;21.10;73.30;;;;;;5050494;28;20419;-79
2022/07/26 09:20:03;;;;;;;;;;;21.10;75.20;;;;;;5054050;28;19983;-80
2022/07/26 09:22:28;;;;;;;;;;;21.10;74.70;;;;;;5051688;28;19928;-80
2022/07/26 09:24:54;;;;;;;;;;;21.20;74.20;;;;;;5053930;28;19916;-79
2022/07/26 09:27:19;;;;;;;;;;;21.30;75.30;;;;;;5051546;28;19927;-79
2022/07/26 09:29:46;;;;;;;;;;;21.30;74.90;;;;;;5053604;28;19969;-80
2022/07/26 09:32:22;;;;;;;;;;;21.40;76.00;;;;;;5051465;28;19920;-80
2022/07/26 09:34:49;;;;;;;;;;;21.60;75.50;;;;;;5050479;28;19919;-80
2022/07/26 09:37:15;;;;;;;;;;;21.80;75.60;;;;;;5059745;28;19921;-80
2022/07/26 09:39:52;;;;;;;;;;;22.10;73.20;;;;;;5057595;28;19916;-80
2022/07/26 09:42:18;;;;;;;;;;;22.00;71.20;;;;;;5055604;28;19955;-79
2022/07/26 09:44:43;;;;;;;;;;;22.00;70.50;;;;;;5062020;28;19917;-80
2022/07/26 09:47:09;;;;;;;;;;;21.80;68.70;;;;;;5052939;28;19938;-80
2022/07/26 09:49:34;;;;;;;;;;;21.70;68.00;;;;;;5051667;28;19928;-78
2022/07/26 09:52:00;;;;;;;;;;;21.70;67.50;;;;;;5049468;28;19924;-79
2022/07/26 09:54:28;;;;;;;;;;;21.80;69.00;;;;;;5050907;28;20378;-80
2022/07/26 09:56:53;;;;;;;;;;;21.80;68.10;;;;;;5054450;28;19913;-81
2022/07/26 09:59:20;;;;;;;;;;;21.80;68.70;;;;;;5057438;28;19939;-85
2022/07/26 10:01:46;;;;;;;;;;;21.80;69.50;;;;;;5053625;28;19912;-81
2022/07/26 10:04:12;;;;;;;;;;;22.00;67.80;;;;;;5049684;28;19913;-80
2022/07/26 10:06:38;;;;;;;;;;;21.90;66.90;;;;;;5051849;28;19917;-80
2022/07/26 10:09:05;;;;;;;;;;;21.80;67.40;;;;;;5047326;28;20011;-79
2022/07/26 10:11:50;;;;;;;;;;;21.70;67.20;;;;;;5052468;28;20003;-80
2022/07/26 10:14:31;;;;;;;;;;;21.80;65.60;;;;;;5036655;28;19954;-80
2022/07/26 10:16:57;;;;;;;;;;;22.30;65.60;;;;;;5050650;28;19917;-80
2022/07/26 10:19:41;;;;;;;;;;;22.70;63.80;;;;;;5051714;28;19967;-79
2022/07/26 10:22:22;;;;;;;;;;;23.10;63.60;;;;;;5040940;28;19913;-79
2022/07/26 10:24:48;;;;;;;;;;;23.30;62.80;;;;;;5050582;28;19984;-80
2022/07/26 10:27:32;;;;;;;;;;;23.30;61.60;;;;;;5047098;28;20007;-80
2022/07/26 10:30:21;;;;;;;;;;;23.30;61.70;;;;;;5043924;28;21281;-78
2022/07/26 10:32:52;;;;;;;;;;;23.20;62.50;;;;;;5036657;28;19992;-80
2022/07/26 10:35:47;;;;;;;;;;;23.00;63.20;;;;;;5045065;28;19913;-80
2022/07/26 10:38:21;;;;;;;;;;;22.70;63.60;;;;;;5035713;28;19917;-79
2022/07/26 10:40:57;;;;;;;;;;;22.50;62.90;;;;;;5038353;28;19921;-83
2022/07/26 10:43:23;;;;;;;;;;;22.30;63.40;;;;;;5048776;28;19951;-82
2022/07/26 10:46:09;;;;;;;;;;;21.90;65.10;;;;;;5048675;28;19935;-80
2022/07/26 10:48:53;;;;;;;;;;;21.40;66.50;;;;;;5047066;28;20308;-78
2022/07/26 10:51:31;;;;;;;;;;;21.30;66.90;;;;;;5043159;28;19953;-79
2022/07/26 10:53:59;;;;;;;;;;;21.20;67.50;;;;;;5049807;28;20369;-79
2022/07/26 10:56:25;;;;;;;;;;;21.20;67.50;;;;;;5044400;28;19923;-80
2022/07/26 10:58:51;;;;;;;;;;;21.30;67.20;;;;;;5049338;28;20003;-78
2022/07/26 11:01:16;;;;;;;;;;;21.20;67.40;;;;;;5041808;28;19917;-78
2022/07/26 11:03:42;;;;;;;;;;;21.10;67.90;;;;;;5048421;28;20393;-79
2022/07/26 11:06:09;;;;;;;;;;;21.00;68.90;;;;;;5046951;28;20053;-80
2022/07/26 11:08:34;;;;;;;;;;;21.30;68.60;;;;;;5048276;28;19932;-78
2022/07/26 11:11:00;;;;;;;;;;;21.50;67.90;;;;;;5050276;28;19913;-78
2022/07/26 11:13:25;;;;;;;;;;;21.50;66.80;;;;;;5049743;28;20004;-80
2022/07/26 11:15:57;;;;;;;;;;;21.60;67.90;;;;;;5063884;28;20455;-78
2022/07/26 11:18:26;;;;;;;;;;;21.70;66.80;;;;;;5051596;28;19909;-78
2022/07/26 11:20:53;;;;;;;;;;;21.70;66.70;;;;;;5047732;28;19999;-78
2022/07/26 11:23:22;;;;;;;;;;;21.80;66.70;;;;;;5048277;28;19982;-79
2022/07/26 11:26:07;;;;;;;;;;;22.00;67.00;;;;;;5049709;28;19916;-79
2022/07/26 11:28:45;;;;;;;;;;;22.10;65.00;;;;;;5053683;28;19970;-77
2022/07/26 11:31:11;;;;;;;;;;;22.20;64.20;;;;;;5047845;28;20000;-79
2022/07/26 11:33:37;;;;;;;;;;;22.10;65.10;;;;;;5063521;28;20420;-79
2022/07/26 11:36:03;;;;;;;;;;;22.10;64.40;;;;;;5050208;28;19952;-80
2022/07/26 11:38:48;;;;;;;;;;;22.10;65.20;;;;;;5055502;28;19934;-79
2022/07/26 11:41:14;;;;;;;;;;;22.10;65.00;;;;;;5071095;28;20293;-79
2022/07/26 11:43:40;;;;;;;;;;;22.10;65.70;;;;;;5060947;28;19917;-80
2022/07/26 11:46:05;;;;;;;;;;;22.00;65.40;;;;;;5067330;28;19917;-78
2022/07/26 11:48:32;;;;;;;;;;;21.90;66.60;;;;;;5054569;28;19963;-78
2022/07/26 11:51:08;;;;;;;;;;;21.90;66.60;;;;;;5055487;28;20374;-77
2022/07/26 11:53:35;;;;;;;;;;;21.80;67.50;;;;;;5051204;28;20247;-80
2022/07/26 11:56:17;;;;;;;;;;;21.60;67.50;;;;;;5055378;28;19920;-80
2022/07/26 11:58:43;;;;;;;;;;;21.30;69.10;;;;;;5050111;28;20815;-80
2022/07/26 12:01:10;;;;;;;;;;;21.00;69.50;;;;;;5053548;28;19913;-79
2022/07/26 12:03:39;;;;;;;;;;;20.80;69.00;;;;;;5046786;28;19960;-79
2022/07/26 12:06:06;;;;;;;;;;;20.70;69.90;;;;;;5054050;28;19916;-77
2022/07/26 12:08:39;;;;;;;;;;;20.80;69.20;;;;;;5045873;28;19980;-78
2022/07/26 12:11:05;;;;;;;;;;;20.80;69.30;;;;;;5051880;28;19921;-79
2022/07/26 12:13:30;;;;;;;;;;;20.60;68.10;;;;;;5052349;28;20448;-79
2022/07/26 12:15:56;;;;;;;;;;;20.60;68.70;;;;;;5061411;28;19912;-79
2022/07/26 12:18:22;;;;;;;;;;;20.60;68.30;;;;;;5052196;28;19912;-78
2022/07/26 12:20:57;;;;;;;;;;;20.70;67.80;;;;;;5055036;28;19970;-78
2022/07/26 12:23:23;;;;;;;;;;;21.00;66.70;;;;;;5052826;28;19921;-79
2022/07/26 12:25:48;;;;;;;;;;;21.30;66.20;;;;;;5051924;28;21236;-79
2022/07/26 12:28:13;;;;;;;;;;;21.60;64.90;;;;;;5045957;28;19924;-78
2022/07/26 12:30:39;;;;;;;;;;;21.70;64.20;;;;;;5043595;28;19917;-79
2022/07/26 12:33:04;;;;;;;;;;;21.60;65.00;;;;;;5051095;28;20411;-78
2022/07/26 12:35:32;;;;;;;;;;;21.80;64.80;;;;;;5054631;28;20288;-77
2022/07/26 12:37:58;;;;;;;;;;;21.60;63.90;;;;;;5051457;28;19923;-79
2022/07/26 12:40:27;;;;;;;;;;;21.80;63.10;;;;;;5058163;28;19948;-77
2022/07/26 12:42:54;;;;;;;;;;;21.60;63.20;;;;;;5065718;28;19912;-78
2022/07/26 12:45:22;;;;;;;;;;;21.80;63.00;;;;;;5064767;28;19983;-84
2022/07/26 12:47:49;;;;;;;;;;;21.80;63.20;;;;;;5060747;28;19912;-83
2022/07/26 12:50:15;;;;;;;;;;;21.80;63.20;;;;;;5066984;28;19943;-79
2022/07/26 12:52:41;;;;;;;;;;;21.70;63.60;;;;;;5068054;28;19928;-78
2022/07/26 12:55:08;;;;;;;;;;;21.80;63.00;;;;;;5069098;28;20015;-81
2022/07/26 12:57:34;;;;;;;;;;;21.70;63.20;;;;;;5066864;28;19919;-81
2022/07/26 12:59:59;;;;;;;;;;;22.00;61.90;;;;;;5062703;28;19968;-78
2022/07/26 13:02:25;;;;;;;;;;;22.10;62.00;;;;;;5051690;28;20488;-79
2022/07/26 13:04:50;;;;;;;;;;;22.30;61.40;;;;;;5059784;28;19918;-81
2022/07/26 13:07:16;;;;;;;;;;;22.40;61.20;;;;;;5052541;28;20007;-79
2022/07/26 13:09:42;;;;;;;;;;;22.50;59.80;;;;;;5054886;28;19920;-81
2022/07/26 13:12:08;;;;;;;;;;;22.50;60.20;;;;;;5056573;28;19951;-82
2022/07/26 13:14:35;;;;;;;;;;;22.20;60.70;;;;;;5062677;28;19913;-82
2022/07/26 13:17:01;;;;;;;;;;;22.40;60.70;;;;;;5053124;28;20548;-80
2022/07/26 13:19:26;;;;;;;;;;;22.50;60.10;;;;;;5052980;28;20361;-82
2022/07/26 13:21:52;;;;;;;;;;;22.30;60.50;;;;;;5057154;28;19913;-83
2022/07/26 13:24:17;;;;;;;;;;;22.30;60.70;;;;;;5055635;28;19979;-81
2022/07/26 13:26:43;;;;;;;;;;;22.30;61.10;;;;;;5064234;28;19963;-84
2022/07/26 13:29:09;;;;;;;;;;;22.30;61.10;;;;;;5061979;28;19935;-84
2022/07/26 13:31:34;;;;;;;;;;;22.20;61.40;;;;;;5058215;28;19928;-84
2022/07/26 13:33:59;;;;;;;;;;;22.10;61.50;;;;;;5062200;28;19913;-82
2022/07/26 13:36:25;;;;;;;;;;;22.10;61.30;;;;;;5062228;28;19928;-83
2022/07/26 13:38:50;;;;;;;;;;;22.10;61.30;;;;;;5064159;28;20031;-84
2022/07/26 13:41:16;;;;;;;;;;;22.10;61.00;;;;;;5064134;28;19913;-84
2022/07/26 13:43:41;;;;;;;;;;;22.30;60.10;;;;;;5067722;28;19955;-79
2022/07/26 13:46:07;;;;;;;;;;;22.20;60.00;;;;;;5055374;28;19921;-80
2022/07/26 13:48:32;;;;;;;;;;;22.10;61.70;;;;;;5046325;28;19919;-78
2022/07/26 13:50:58;;;;;;;;;;;22.10;61.00;;;;;;5047437;28;19923;-81
2022/07/26 13:53:24;;;;;;;;;;;22.10;60.20;;;;;;5060570;28;19916;-83
2022/07/26 13:55:49;;;;;;;;;;;22.10;60.60;;;;;;5064093;28;19964;-84
2022/07/26 13:58:15;;;;;;;;;;;21.90;61.90;;;;;;5056985;28;19944;-83
2022/07/26 14:00:41;;;;;;;;;;;21.90;62.30;;;;;;5058451;28;19921;-83
2022/07/26 14:03:07;;;;;;;;;;;22.10;59.40;;;;;;5056015;28;19920;-83
2022/07/26 14:05:32;;;;;;;;;;;22.40;59.30;;;;;;5059161;28;20618;-82
2022/07/26 14:07:58;;;;;;;;;;;22.40;58.60;;;;;;5057965;28;19924;-83
2022/07/26 14:10:24;;;;;;;;;;;22.30;59.60;;;;;;5055504;28;19920;-83
2022/07/26 14:12:50;;;;;;;;;;;22.50;59.50;;;;;;5056279;28;20003;-84
2022/07/26 14:15:16;;;;;;;;;;;22.50;60.50;;;;;;5054978;28;19968;-81
2022/07/26 14:17:43;;;;;;;;;;;22.60;59.60;;;;;;5047743;28;19913;-80